METAR LDZA 052330Z 23003KT CAVOK 17/15 Q1014 NOSIG =
METAR LDZA 052300Z VRB02KT CAVOK 18/16 Q1014 NOSIG =
METAR LDZA 052230Z 26002KT CAVOK 18/16 Q1014 NOSIG =
METAR LDZA 052200Z 25002KT CAVOK 19/17 Q1014 NOSIG =
METAR LDZA 052130Z 00000KT CAVOK 19/16 Q1014 NOSIG =
METAR LDZA 052100Z 00000KT CAVOK 20/16 Q1014 NOSIG =
METAR LDZA 052030Z VRB01KT CAVOK 20/16 Q1014 NOSIG =
METAR LDZA 052000Z 31004KT 260V340 CAVOK 21/16 Q1014 NOSIG =
METAR LDZA 051930Z 19001KT CAVOK 23/17 Q1014 NOSIG =
METAR LDZA 051900Z VRB01KT CAVOK 24/15 Q1014 NOSIG =
METAR LDZA 051830Z 13003KT CAVOK 25/15 Q1014 NOSIG =
METAR LDZA 051800Z 12005KT CAVOK 26/15 Q1014 NOSIG =
METAR LDZA 051730Z 08004KT 020V120 CAVOK 28/13 Q1014 NOSIG =
METAR LDZA 051700Z 09004KT 030V120 CAVOK 28/13 Q1014 NOSIG =
METAR LDZA 051630Z 09005KT 050V130 CAVOK 28/14 Q1014 NOSIG =
METAR LDZA 051600Z 04004KT 320V110 CAVOK 29/13 Q1014 NOSIG =
METAR LDZA 051530Z 07005KT 020V140 CAVOK 28/14 Q1015 NOSIG =
METAR LDZA 051500Z 10004KT 010V170 CAVOK 29/13 Q1015 NOSIG =
METAR LDZA 051430Z VRB05KT CAVOK 29/13 Q1015 NOSIG =
METAR LDZA 051400Z 04006G17KT 330V100 CAVOK 29/12 Q1015 BECMG TL1430 04007KT =
METAR LDZA 051330Z VRB02KT CAVOK 29/12 Q1015 TEMPO 04008KT =
METAR LDZA 051300Z VRB04KT CAVOK 28/12 Q1016 TEMPO 04008KT =
METAR LDZA 051230Z VRB05KT CAVOK 28/14 Q1016 TEMPO 04008KT =
METAR LDZA 051200Z 06006KT 350V120 CAVOK 28/12 Q1016 TEMPO 04008KT =
METAR LDZA 051130Z VRB07KT CAVOK 28/13 Q1017 TEMPO 04008KT =
METAR LDZA 051100Z 07007KT 340V130 CAVOK 28/13 Q1017 NOSIG =
METAR LDZA 051030Z VRB03KT CAVOK 27/13 Q1017 NOSIG =
METAR LDZA 051000Z VRB03KT CAVOK 27/14 Q1018 NOSIG =
METAR LDZA 050930Z VRB03KT 9999 FEW045 27/13 Q1018 NOSIG =
METAR LDZA 050900Z VRB01KT 9999 FEW045 26/13 Q1018 NOSIG =
METAR LDZA 050830Z VRB02KT 9999 FEW045 25/15 Q1018 NOSIG =
METAR LDZA 050800Z VRB02KT CAVOK 24/15 Q1018 NOSIG =
METAR LDZA 050730Z 25003KT 210V290 CAVOK 22/15 Q1018 NOSIG =
METAR LDZA 050700Z 23003KT 170V270 CAVOK 21/15 Q1018 NOSIG =
METAR LDZA 050630Z VRB02KT CAVOK 20/15 Q1018 NOSIG =
METAR LDZA 050600Z 22003KT 180V260 CAVOK 18/15 Q1018 NOSIG =
METAR LDZA 050530Z 23003KT 200V260 CAVOK 17/15 Q1018 NOSIG =
METAR LDZA 050500Z 23003KT 200V260 CAVOK 16/14 Q1018 NOSIG =
METAR LDZA 050430Z VRB02KT CAVOK 15/14 Q1018 NOSIG =
METAR LDZA 050400Z 24003KT CAVOK 14/12 Q1018 NOSIG =
METAR LDZA 050330Z 21003KT CAVOK 14/13 Q1017 NOSIG =
METAR LDZA 050300Z 24002KT CAVOK 13/12 Q1017 NOSIG =
METAR LDZA 050230Z 25003KT CAVOK 14/13 Q1017 NOSIG =
METAR LDZA 050200Z 24004KT CAVOK 13/12 Q1017 NOSIG =
METAR LDZA 050130Z 24004KT CAVOK 14/13 Q1017 NOSIG =
METAR LDZA 050100Z 24004KT CAVOK 14/13 Q1017 NOSIG =
METAR LDZA 050030Z 24004KT CAVOK 14/13 Q1017 NOSIG =
METAR LDZA 050000Z 24003KT CAVOK 14/13 Q1017 NOSIG =
METAR LDZA 042330Z 23003KT CAVOK 14/13 Q1017 NOSIG =
METAR LDZA 042300Z 24003KT CAVOK 15/13 Q1017 NOSIG =
METAR LDZA 042230Z 23003KT CAVOK 15/14 Q1017 NOSIG =
METAR LDZA 042200Z 25003KT 220V280 CAVOK 16/14 Q1017 NOSIG =
METAR LDZA 042130Z 24003KT CAVOK 16/14 Q1017 NOSIG =
METAR LDZA 042100Z 24003KT CAVOK 17/15 Q1017 NOSIG =
METAR LDZA 042030Z 29001KT CAVOK 18/15 Q1017 NOSIG =
METAR LDZA 042000Z 00000KT CAVOK 19/14 Q1017 NOSIG =
METAR LDZA 041930Z 00000KT CAVOK 20/15 Q1017 NOSIG =
METAR LDZA 041900Z 00000KT CAVOK 21/15 Q1016 NOSIG =
METAR LDZA 041830Z 00000KT CAVOK 24/13 Q1016 NOSIG =
METAR LDZA 041800Z 09003KT 060V140 CAVOK 25/12 Q1016 NOSIG =
METAR LDZA 041730Z VRB02KT CAVOK 25/11 Q1016 NOSIG =
METAR LDZA 041700Z 05005KT 360V120 CAVOK 26/11 Q1016 NOSIG =
METAR LDZA 041630Z 05007KT 350V110 CAVOK 26/11 Q1016 NOSIG =
METAR LDZA 041600Z 03005KT 330V090 CAVOK 26/11 Q1016 NOSIG =
METAR COR LDZA 041530Z 02008KT 320V050 CAVOK 26/11 Q1016 NOSIG =
METAR LDZA 041500Z 04011KT 350V090 CAVOK 26/11 Q1017 NOSIG =
METAR LDZA 041430Z 04011KT 350V100 CAVOK 26/11 Q1017 NOSIG =
METAR COR LDZA 041400Z 03007KT 330V100 CAVOK 27/11 Q1017 NOSIG =
METAR LDZA 041330Z 06007KT 350V130 CAVOK 26/11 Q1017 NOSIG =
METAR LDZA 041300Z 08007KT 360V140 CAVOK 27/11 Q1017 NOSIG =
METAR LDZA 041230Z 07006KT 360V140 CAVOK 27/14 Q1017 NOSIG =
METAR LDZA 041200Z VRB06KT CAVOK 27/11 Q1018 NOSIG =